KCPK

Details ICAO KCPK
Name CHESAPEAKE RGNL
Region United States
Timezone America/New_York (UTC-5.0)
Plans Departing 18
Arriving 17
Stats Elevation 20 ft / 6 m (AMSL)
Location 36.665618° -76.320663°
Runways 1
Magnetic Variation 10.796° W
Sunrise 2017-12-12 12:09:52 UTC / 2017-12-12 07:09:52 Local
Sunset 2017-12-12 21:51:13 UTC / 2017-12-12 16:51:13 Local
Advertisement - Login to hide

Runways

ID Width Length Bearing (true) Bearing (mag) Surface Threshold Offset Overrun Length
05 100 ft / 30 m 5,504 ft / 1,678 m 36.78° 47.58° Asphalt 0 ft / 0 m 0 ft / 0 m
23 100 ft / 30 m 5,504 ft / 1,678 m 216.79° 227.59° Asphalt 0 ft / 0 m 0 ft / 0 m

Approach Navaids

Runway Type Ident Frequency Range Bearing (true) Bearing (mag) Slope Elevation
05 Localiser IEYK 111.70 MHz 18 nm / 33 km 36.81° 47.61° - 21 ft / 6 m (AMSL)
05 Glidescope IEYK 111.70 MHz 10 nm / 19 km 36.79° 47.58° 3.00° 14 ft / 4 m (AMSL)
05 DME IEYK 111.70 MHz 18 nm / 33 km - - - 16 ft / 5 m (AMSL)

Map

Weather


0- 5 10 15 20 25 30 35+ Temperature / ° C

Clouds and Precipitation
Forecast for 2017-12-12 12:00 UTC. Updated an hour ago

Ground ~20,000 ft ~40,000 ft Winds

METAR

KCPK 120815Z AUTO 20003KT 10SM CLR 03/00 A2985 RMK AO2 T00310000

TAF

Not found

Frequencies

Recorded 123.67 MHz AWOS 3
Approach 118.90 MHz NORFOLK APP/DEP
Unicom 123.05 MHz CTAF/UNICOM
Warning: Do not use this data for real-world aviation or navigation. No guarantee of current accuracy is given.